createdAt,value
2022-12-18T00:00:43.617Z,63.03
2022-12-18T00:04:43.769Z,99.50
2022-12-18T00:08:47.847Z,79.13
2022-12-18T00:12:48.003Z,107.73
2022-12-18T00:16:49.597Z,72.07
2022-12-18T00:20:49.683Z,101.47
2022-12-18T00:24:52.364Z,97.77
2022-12-18T00:28:53.747Z,90.60
2022-12-18T00:32:54.179Z,65.23
2022-12-18T00:36:54.403Z,130.67
2022-12-18T00:40:58.555Z,102.83
2022-12-18T00:44:58.610Z,98.87
2022-12-18T00:48:58.720Z,114.57
2022-12-18T00:52:58.972Z,124.80
2022-12-18T00:57:02.049Z,81.37
2022-12-18T01:01:02.278Z,112.57
2022-12-18T01:05:02.830Z,95.10
2022-12-18T01:09:03.422Z,103.53
2022-12-18T01:13:06.334Z,80.60
2022-12-18T01:17:06.476Z,74.97
2022-12-18T01:21:12.476Z,66.57
2022-12-18T01:25:13.063Z,90.00
2022-12-18T01:29:15.861Z,58.57
2022-12-18T01:33:16.263Z,97.30
2022-12-18T01:37:16.432Z,113.80
2022-12-18T01:41:19.422Z,76.23
2022-12-18T01:45:35.491Z,71.50
2022-12-18T01:49:36.063Z,55.90
2022-12-18T01:53:37.008Z,70.97
2022-12-18T01:57:38.568Z,57.40
2022-12-18T02:01:42.056Z,58.70
2022-12-18T02:05:51.023Z,50.23
2022-12-18T02:10:01.349Z,49.97
2022-12-18T02:14:19.499Z,49.60
2022-12-18T02:18:27.933Z,53.10
2022-12-18T02:22:39.175Z,52.50
2022-12-18T02:26:49.817Z,53.00
2022-12-18T02:30:54.761Z,53.33
2022-12-18T02:34:59.505Z,56.13
2022-12-18T02:39:05.274Z,46.73
2022-12-18T02:43:17.022Z,48.07
2022-12-18T02:47:21.119Z,52.57
2022-12-18T02:51:32.968Z,51.73
2022-12-18T02:55:56.058Z,53.70
2022-12-18T03:00:08.692Z,51.47
2022-12-18T03:04:19.262Z,49.47
2022-12-18T03:08:26.006Z,53.63
2022-12-18T03:12:35.087Z,46.60
2022-12-18T03:16:40.678Z,51.43
2022-12-18T03:20:46.098Z,56.13
2022-12-18T03:24:52.747Z,52.33
2022-12-18T03:28:57.374Z,48.67
2022-12-18T03:33:11.644Z,52.17
2022-12-18T03:37:16.045Z,51.90
2022-12-18T03:41:29.530Z,56.73
2022-12-18T03:46:06.383Z,52.67
2022-12-18T03:50:19.195Z,51.70
2022-12-18T03:54:23.929Z,57.93
2022-12-18T03:58:34.428Z,54.20
2022-12-18T04:02:52.538Z,51.90
2022-12-18T04:07:01.995Z,56.00
2022-12-18T04:11:02.356Z,54.10
2022-12-18T04:15:02.932Z,56.53
2022-12-18T04:19:03.530Z,58.47
2022-12-18T04:23:11.721Z,59.63
2022-12-18T04:27:13.597Z,48.67
2022-12-18T04:31:18.203Z,54.80
2022-12-18T04:35:18.680Z,62.20
2022-12-18T04:39:21.931Z,59.60
2022-12-18T04:43:24.376Z,55.40
2022-12-18T04:47:24.542Z,52.10
2022-12-18T04:51:26.704Z,57.53
2022-12-18T04:55:32.738Z,57.10
2022-12-18T04:59:33.007Z,59.33
2022-12-18T05:03:33.172Z,61.80
2022-12-18T05:07:33.416Z,60.47
2022-12-18T05:11:36.289Z,53.40
2022-12-18T05:15:37.575Z,56.93
2022-12-18T05:19:38.192Z,57.00
2022-12-18T05:23:39.446Z,49.93
2022-12-18T05:27:42.479Z,51.63
2022-12-18T05:31:43.008Z,49.13
2022-12-18T05:35:44.622Z,55.57
2022-12-18T05:39:46.083Z,48.37
2022-12-18T05:43:48.890Z,49.47
2022-12-18T05:47:48.933Z,59.30
2022-12-18T05:51:49.142Z,49.87
2022-12-18T05:55:50.295Z,45.93
2022-12-18T05:59:53.042Z,56.00
2022-12-18T06:03:53.263Z,45.13
2022-12-18T06:07:53.422Z,51.80
2022-12-18T06:11:56.374Z,43.53
2022-12-18T06:15:59.059Z,39.80
2022-12-18T06:19:59.200Z,44.20
2022-12-18T06:23:59.444Z,49.60
2022-12-18T06:27:59.502Z,46.17
2022-12-18T06:32:02.579Z,48.50
2022-12-18T06:36:06.355Z,44.10
2022-12-18T06:40:07.453Z,52.87
2022-12-18T06:44:07.914Z,45.57
2022-12-18T06:48:11.035Z,40.60
2022-12-18T06:52:11.291Z,39.20
2022-12-18T06:56:11.746Z,40.43
2022-12-18T07:00:13.542Z,45.10
2022-12-18T07:04:16.353Z,43.97
2022-12-18T07:08:16.450Z,50.57
2022-12-18T07:12:16.555Z,45.60
2022-12-18T07:16:24.810Z,48.40
2022-12-18T07:20:28.277Z,42.70
2022-12-18T07:24:28.485Z,48.67
2022-12-18T07:28:28.584Z,47.47
2022-12-18T07:32:28.662Z,51.53
2022-12-18T07:36:31.654Z,50.73
2022-12-18T07:40:31.800Z,45.97
2022-12-18T07:44:31.904Z,45.13
2022-12-18T07:48:32.613Z,44.23
2022-12-18T07:52:35.388Z,40.57
2022-12-18T07:56:35.524Z,39.40
2022-12-18T08:00:35.672Z,40.97
2022-12-18T08:04:35.766Z,45.13
2022-12-18T08:08:39.314Z,38.60
2022-12-18T08:12:39.540Z,37.20
2022-12-18T08:16:40.675Z,43.10
2022-12-18T08:20:42.976Z,44.20
2022-12-18T08:24:45.896Z,43.40
2022-12-18T08:28:46.558Z,42.50
2022-12-18T08:32:46.689Z,39.37
2022-12-18T08:36:46.777Z,39.97
2022-12-18T08:40:49.689Z,38.20
2022-12-18T08:44:49.846Z,40.73
2022-12-18T08:48:50.804Z,33.90
2022-12-18T08:52:50.974Z,34.07
2022-12-18T08:56:53.615Z,36.30
2022-12-18T09:00:53.760Z,30.63
2022-12-18T09:04:57.297Z,39.17
2022-12-18T09:08:57.967Z,35.83
2022-12-18T09:13:00.679Z,27.90
2022-12-18T09:17:00.853Z,41.23
2022-12-18T09:21:01.043Z,30.43
2022-12-18T09:25:01.104Z,28.77
2022-12-18T09:29:04.656Z,30.03
2022-12-18T09:33:04.749Z,35.07
2022-12-18T09:37:07.110Z,33.40
2022-12-18T09:41:29.444Z,34.50
2022-12-18T09:45:42.250Z,32.97
2022-12-18T09:49:48.846Z,32.43
2022-12-18T09:53:56.299Z,30.07
2022-12-18T09:58:03.331Z,32.10
2022-12-18T10:02:22.463Z,32.13
2022-12-18T10:06:31.022Z,32.67
2022-12-18T10:10:41.825Z,26.10
2022-12-18T10:14:54.706Z,29.03
2022-12-18T10:19:21.718Z,28.87
2022-12-18T10:23:35.496Z,41.43
2022-12-18T10:27:35.895Z,26.90
2022-12-18T10:31:36.824Z,25.77
2022-12-18T10:35:41.347Z,31.20
2022-12-18T10:39:41.665Z,27.20
2022-12-18T10:43:44.232Z,27.17
2022-12-18T10:47:49.399Z,29.97
2022-12-18T10:51:52.836Z,30.97
2022-12-18T10:55:54.766Z,29.40
2022-12-18T10:59:57.979Z,27.97
2022-12-18T11:04:11.485Z,28.40
2022-12-18T11:08:25.620Z,31.37
2022-12-18T11:12:27.476Z,29.87
2022-12-18T11:16:27.880Z,29.13
2022-12-18T11:20:37.675Z,30.63
2022-12-18T11:24:41.483Z,28.53
2022-12-18T11:28:47.407Z,32.30
2022-12-18T11:32:51.009Z,30.67
2022-12-18T11:36:52.369Z,30.70
2022-12-18T11:41:04.197Z,33.90
2022-12-18T11:45:24.050Z,32.37
2022-12-18T11:49:30.637Z,32.20
2022-12-18T11:53:33.691Z,30.83
2022-12-18T11:57:52.272Z,31.80
2022-12-18T12:01:58.978Z,33.37
2022-12-18T12:06:16.126Z,33.30
2022-12-18T12:10:41.851Z,34.37
2022-12-18T12:14:57.291Z,33.57
2022-12-18T12:19:26.922Z,32.13
2022-12-18T12:23:39.883Z,33.80
2022-12-18T12:27:53.746Z,38.07
2022-12-18T12:32:15.131Z,31.50
2022-12-18T12:36:37.746Z,34.50
2022-12-18T12:40:53.771Z,34.93
2022-12-18T12:45:03.223Z,35.50
2022-12-18T12:49:13.461Z,33.63
2022-12-18T12:53:27.584Z,32.90
2022-12-18T12:57:37.370Z,35.83
2022-12-18T13:01:52.495Z,37.40
2022-12-18T13:06:04.210Z,36.43
2022-12-18T13:10:37.868Z,37.77
2022-12-18T13:14:42.341Z,34.43
2022-12-18T13:18:42.875Z,33.10
2022-12-18T13:22:51.267Z,32.80
2022-12-18T13:26:51.568Z,33.30
2022-12-18T13:30:58.400Z,33.30
2022-12-18T13:35:41.984Z,33.40
2022-12-18T13:39:44.871Z,36.67
2022-12-18T13:43:50.606Z,36.93
2022-12-18T13:47:52.430Z,32.27
2022-12-18T13:51:56.714Z,36.80
2022-12-18T13:56:00.563Z,34.37
2022-12-18T14:00:01.557Z,33.73
2022-12-18T14:04:14.991Z,35.50
2022-12-18T14:08:18.975Z,34.17
2022-12-18T14:12:39.229Z,36.20
2022-12-18T14:16:40.649Z,34.30
2022-12-18T14:20:52.681Z,31.07
2022-12-18T14:25:19.642Z,32.97
2022-12-18T14:29:30.106Z,37.97
2022-12-18T14:33:31.746Z,40.40
2022-12-18T14:37:32.196Z,37.13
2022-12-18T14:41:34.117Z,34.50
2022-12-18T14:45:47.241Z,31.37
2022-12-18T14:49:48.282Z,36.80
2022-12-18T14:53:54.937Z,39.13
2022-12-18T14:57:59.621Z,34.47
2022-12-18T15:02:12.291Z,36.80
2022-12-18T15:06:31.616Z,34.03
2022-12-18T15:10:34.249Z,35.20
2022-12-18T15:14:43.191Z,38.67
2022-12-18T15:18:49.047Z,35.33
2022-12-18T15:22:51.869Z,32.87
2022-12-18T15:26:52.084Z,35.43
2022-12-18T15:31:27.257Z,33.80
2022-12-18T15:35:30.034Z,36.70
2022-12-18T15:39:30.454Z,41.80
2022-12-18T15:43:40.503Z,37.73
2022-12-18T15:47:40.857Z,36.50
2022-12-18T15:51:43.750Z,35.43
2022-12-18T15:56:01.385Z,38.87
2022-12-18T16:00:01.757Z,36.63
2022-12-18T16:04:05.061Z,33.23
2022-12-18T16:08:08.192Z,32.70
2022-12-18T16:12:09.142Z,38.10
2022-12-18T16:16:12.442Z,35.23
2022-12-18T16:20:18.421Z,34.20
2022-12-18T16:24:24.955Z,38.30
2022-12-18T16:28:25.197Z,67.47
2022-12-18T16:32:26.319Z,41.33
2022-12-18T16:36:26.480Z,39.33
2022-12-18T16:40:29.195Z,25.30
2022-12-18T16:44:30.089Z,32.33
2022-12-18T16:48:30.388Z,33.00
2022-12-18T16:52:34.951Z,28.60
2022-12-18T16:56:38.073Z,26.73
2022-12-18T17:00:41.604Z,26.87
2022-12-18T17:04:42.037Z,32.80
2022-12-18T17:08:42.115Z,27.90
2022-12-18T17:12:45.113Z,29.77
2022-12-18T17:16:45.791Z,28.70
2022-12-18T17:20:46.050Z,33.87
2022-12-18T17:24:46.123Z,35.63
2022-12-18T17:28:48.775Z,30.97
2022-12-18T17:32:48.949Z,30.33
2022-12-18T17:36:49.118Z,29.93
2022-12-18T17:40:49.227Z,29.00
2022-12-18T17:44:53.651Z,27.93
2022-12-18T17:48:54.610Z,32.20
2022-12-18T17:52:58.954Z,29.37
2022-12-18T17:56:59.033Z,31.63
2022-12-18T18:01:05.472Z,31.77
2022-12-18T18:05:05.735Z,35.03
2022-12-18T18:09:06.004Z,31.73
2022-12-18T18:13:21.820Z,30.13
2022-12-18T18:17:24.593Z,32.53
2022-12-18T18:21:24.785Z,30.67
2022-12-18T18:25:25.611Z,29.43
2022-12-18T18:29:30.360Z,32.83
2022-12-18T18:33:33.298Z,39.90
2022-12-18T18:37:33.538Z,34.70
2022-12-18T18:41:33.659Z,38.17
2022-12-18T18:45:34.755Z,39.40
2022-12-18T18:49:37.450Z,38.53
2022-12-18T18:53:41.018Z,38.97
2022-12-18T18:57:42.189Z,39.77
2022-12-18T19:01:42.551Z,40.57
2022-12-18T19:05:47.618Z,41.17
2022-12-18T19:09:51.992Z,34.87
2022-12-18T19:13:52.316Z,40.37
2022-12-18T19:17:52.978Z,42.10
2022-12-18T19:21:56.031Z,42.47
2022-12-18T19:26:17.032Z,41.50
2022-12-18T19:30:17.036Z,43.30
2022-12-18T19:34:17.228Z,43.27
2022-12-18T19:38:20.096Z,46.07
2022-12-18T19:42:26.234Z,41.40
2022-12-18T19:46:29.839Z,44.70
2022-12-18T19:50:30.319Z,52.30
2022-12-18T19:54:35.536Z,47.13
2022-12-18T19:58:36.040Z,46.60
2022-12-18T20:02:37.188Z,43.50
2022-12-18T20:06:48.285Z,45.03
2022-12-18T20:10:51.409Z,52.30
2022-12-18T20:14:51.746Z,49.10
2022-12-18T20:18:52.434Z,47.93
2022-12-18T20:22:52.995Z,48.90
2022-12-18T20:26:56.600Z,52.70
2022-12-18T20:31:03.084Z,44.70
2022-12-18T20:35:04.101Z,47.40
2022-12-18T20:39:13.502Z,48.53
2022-12-18T20:43:21.355Z,49.67
2022-12-18T20:47:21.936Z,45.17
2022-12-18T20:51:24.247Z,48.17
2022-12-18T20:55:24.623Z,46.20
2022-12-18T20:59:29.046Z,49.87
2022-12-18T21:03:29.517Z,47.90
2022-12-18T21:07:29.869Z,51.20
2022-12-18T21:11:46.909Z,48.33
2022-12-18T21:15:49.862Z,47.40
2022-12-18T21:19:50.076Z,50.27
2022-12-18T21:23:51.320Z,51.77
2022-12-18T21:27:51.652Z,46.60
2022-12-18T21:31:56.135Z,47.17
2022-12-18T21:35:56.269Z,52.27
2022-12-18T21:39:56.425Z,48.67
2022-12-18T21:44:08.589Z,53.17
2022-12-18T21:48:12.408Z,49.33
2022-12-18T21:52:12.502Z,47.23
2022-12-18T21:56:12.649Z,54.33
2022-12-18T22:00:18.752Z,50.33
2022-12-18T22:04:24.933Z,51.97
2022-12-18T22:08:25.923Z,50.17
2022-12-18T22:12:43.953Z,50.83
2022-12-18T22:16:46.115Z,52.20
2022-12-18T22:20:49.569Z,52.23
2022-12-18T22:24:49.656Z,54.67
2022-12-18T22:29:02.230Z,54.73
2022-12-18T22:33:02.380Z,56.00
2022-12-18T22:37:05.440Z,54.17
2022-12-18T22:41:05.463Z,53.80
2022-12-18T22:45:05.898Z,59.63
2022-12-18T22:49:06.282Z,58.97
2022-12-18T22:53:10.824Z,64.77
2022-12-18T22:57:11.884Z,60.17
2022-12-18T23:01:24.045Z,61.43
2022-12-18T23:05:24.249Z,59.23
2022-12-18T23:09:26.914Z,58.10
2022-12-18T23:13:27.150Z,59.03
2022-12-18T23:17:27.266Z,62.47
2022-12-18T23:21:27.911Z,59.63
2022-12-18T23:25:31.795Z,59.70
2022-12-18T23:29:31.837Z,62.60
2022-12-18T23:33:32.330Z,66.27
2022-12-18T23:37:57.543Z,62.53
2022-12-18T23:41:55.823Z,63.97
2022-12-18T23:45:56.699Z,59.27
2022-12-18T23:49:56.753Z,66.30
2022-12-18T23:53:59.450Z,67.63
2022-12-18T23:58:02.151Z,66.27
